Time;durP1;ratioP1;P1;durP2;ratioP2;P2;SDS_P1;SDS_P2;PMS_P1;PMS_P2;Temp;Humidity;BMP_temperature;BMP_pressure;BME280_temperature;BME280_humidity;BME280_pressure;Samples;Min_cycle;Max_cycle;Signal;HPM_P1;HPM_P2
2023/03/27 00:01:14;;;;;;;23.53;4.70;;;4.30;99.90;;;;;;5024917;28;20450;-67
2023/03/27 00:03:42;;;;;;;14.57;3.63;;;4.20;99.90;;;;;;5012499;28;20467;-67
2023/03/27 00:06:15;;;;;;;18.10;4.50;;;4.10;99.90;;;;;;5031777;28;20489;-67
2023/03/27 00:08:41;;;;;;;13.43;3.50;;;4.10;99.90;;;;;;5031174;28;20465;-66
2023/03/27 00:11:08;;;;;;;10.10;3.77;;;4.00;99.90;;;;;;5030803;28;20537;-67
2023/03/27 00:13:37;;;;;;;13.30;4.10;;;3.90;99.90;;;;;;5028085;28;20450;-67
2023/03/27 00:16:05;;;;;;;11.80;3.97;;;3.80;99.90;;;;;;5031445;28;20474;-67
2023/03/27 00:18:33;;;;;;;13.10;3.20;;;3.70;99.90;;;;;;5026235;28;20450;-67
2023/03/27 00:21:01;;;;;;;21.63;3.67;;;3.60;99.90;;;;;;5031138;28;20957;-66
2023/03/27 00:23:29;;;;;;;18.37;3.57;;;3.60;99.90;;;;;;5030875;28;20517;-66
2023/03/27 00:25:56;;;;;;;13.30;3.60;;;3.50;99.90;;;;;;5012100;28;20548;-66
2023/03/27 00:28:25;;;;;;;16.83;3.40;;;3.40;99.90;;;;;;5017801;28;21087;-67
2023/03/27 00:30:54;;;;;;;13.10;3.37;;;3.40;99.90;;;;;;5030897;28;20458;-67
2023/03/27 00:33:22;;;;;;;20.93;3.67;;;3.30;99.90;;;;;;5030805;28;20541;-66
2023/03/27 00:35:49;;;;;;;8.50;3.27;;;3.30;99.90;;;;;;5028679;28;20478;-66
2023/03/27 00:38:17;;;;;;;15.90;4.20;;;3.20;99.90;;;;;;5018559;28;20459;-67
2023/03/27 00:40:45;;;;;;;9.07;3.03;;;3.20;99.90;;;;;;5028254;28;21038;-67
2023/03/27 00:43:23;;;;;;;8.33;3.27;;;3.10;99.90;;;;;;5028231;28;20454;-67
2023/03/27 00:45:53;;;;;;;14.80;3.70;;;3.10;99.90;;;;;;5025350;28;20481;-66
2023/03/27 00:48:22;;;;;;;11.93;3.00;;;3.00;99.90;;;;;;5031120;28;20564;-66
2023/03/27 00:50:50;;;;;;;15.17;3.87;;;3.00;99.90;;;;;;5030533;28;20466;-67
2023/03/27 00:53:20;;;;;;;15.50;4.07;;;2.90;99.90;;;;;;5030866;28;20442;-67
2023/03/27 00:55:51;;;;;;;16.37;3.50;;;2.90;99.90;;;;;;5030684;28;20474;-66
2023/03/27 00:58:21;;;;;;;10.63;3.50;;;2.80;99.90;;;;;;5025019;28;20454;-67
2023/03/27 01:00:50;;;;;;;11.63;2.97;;;2.80;99.90;;;;;;5021372;28;20454;-66
2023/03/27 01:03:18;;;;;;;6.60;2.50;;;2.70;99.90;;;;;;5022995;28;20507;-66
2023/03/27 01:05:48;;;;;;;10.90;3.80;;;2.70;99.90;;;;;;5019246;28;20472;-67
2023/03/27 01:08:15;;;;;;;14.93;2.70;;;2.70;99.90;;;;;;5019449;28;20540;-66
2023/03/27 01:10:52;;;;;;;11.83;2.90;;;2.70;99.90;;;;;;5021601;28;20481;-67
2023/03/27 01:13:36;;;;;;;9.30;2.30;;;2.50;99.90;;;;;;5029502;28;20453;-66
2023/03/27 01:16:09;;;;;;;9.50;2.70;;;2.60;99.90;;;;;;5030967;28;20478;-67
2023/03/27 01:18:49;;;;;;;4.90;2.20;;;2.50;99.90;;;;;;5029866;28;20486;-67
2023/03/27 01:21:45;;;;;;;12.03;3.03;;;2.50;99.90;;;;;;5027396;28;20497;-67
2023/03/27 01:24:49;;;;;;;6.80;2.93;;;2.50;99.90;;;;;;5023592;28;20575;-66
2023/03/27 01:27:19;;;;;;;11.10;2.63;;;2.50;99.90;;;;;;5011648;28;20490;-66
2023/03/27 01:29:57;;;;;;;9.87;3.20;;;2.50;99.90;;;;;;5028456;28;20465;-66
2023/03/27 01:32:53;;;;;;;8.00;2.67;;;2.50;99.90;;;;;;5030644;28;20451;-66
2023/03/27 01:35:58;;;;;;;18.10;3.40;;;2.40;99.90;;;;;;5015648;28;20468;-66
2023/03/27 01:38:49;;;;;;;10.63;2.50;;;2.40;99.90;;;;;;5014028;28;20496;-66
2023/03/27 01:41:23;;;;;;;16.10;3.30;;;2.40;99.90;;;;;;5025880;28;20453;-66
2023/03/27 01:43:55;;;;;;;9.77;2.77;;;2.30;99.90;;;;;;5030437;28;20451;-66
2023/03/27 01:46:26;;;;;;;7.67;2.30;;;2.30;99.90;;;;;;5030806;28;20765;-66
2023/03/27 01:48:57;;;;;;;8.93;2.30;;;2.20;99.90;;;;;;5030021;28;20878;-66
2023/03/27 01:51:30;;;;;;;7.20;2.40;;;2.20;99.90;;;;;;5030738;28;20454;-66
2023/03/27 01:54:01;;;;;;;12.30;4.17;;;2.20;99.90;;;;;;5033521;28;20454;-66
2023/03/27 01:56:36;;;;;;;13.33;3.00;;;2.20;99.90;;;;;;5033248;28;20945;-67
2023/03/27 01:59:08;;;;;;;9.20;2.07;;;2.10;99.90;;;;;;5033773;28;20453;-67
2023/03/27 02:01:38;;;;;;;13.30;3.23;;;2.00;99.90;;;;;;5030444;28;20464;-66
2023/03/27 02:04:10;;;;;;;14.53;3.17;;;2.00;99.90;;;;;;5024166;28;21029;-66
2023/03/27 02:06:41;;;;;;;7.30;2.20;;;1.90;99.90;;;;;;5016934;28;20808;-67
2023/03/27 02:09:12;;;;;;;11.93;2.37;;;1.90;99.90;;;;;;5030394;28;20442;-66
2023/03/27 02:11:46;;;;;;;12.33;2.30;;;1.90;99.90;;;;;;5033272;28;20464;-66
2023/03/27 02:14:17;;;;;;;8.40;2.63;;;1.90;99.90;;;;;;5033544;28;20449;-67
2023/03/27 02:16:47;;;;;;;9.87;3.00;;;1.90;99.90;;;;;;5033640;28;20450;-67
2023/03/27 02:19:20;;;;;;;7.80;3.37;;;1.90;99.90;;;;;;5033816;28;20511;-66
2023/03/27 02:21:47;;;;;;;9.43;2.77;;;1.80;99.90;;;;;;5033399;28;20485;-66
2023/03/27 02:24:17;;;;;;;7.90;2.33;;;1.80;99.90;;;;;;5033547;28;20759;-66
2023/03/27 02:26:51;;;;;;;13.60;3.00;;;1.80;99.90;;;;;;5025791;28;21001;-66
2023/03/27 02:29:37;;;;;;;5.70;2.13;;;1.80;99.90;;;;;;5033300;28;20515;-66
2023/03/27 02:32:14;;;;;;;8.37;2.60;;;1.70;99.90;;;;;;5013887;28;20462;-66
2023/03/27 02:35:01;;;;;;;11.37;2.90;;;1.70;99.90;;;;;;5018596;28;20519;-65
2023/03/27 02:37:36;;;;;;;8.67;3.70;;;1.70;99.90;;;;;;5023120;28;20534;-66
2023/03/27 02:40:12;;;;;;;19.50;2.90;;;1.70;99.90;;;;;;5033132;28;20455;-66
2023/03/27 02:42:55;;;;;;;18.10;3.57;;;1.70;99.90;;;;;;5032988;28;20462;-66
2023/03/27 02:45:29;;;;;;;9.53;2.53;;;1.60;99.90;;;;;;5032468;28;20517;-66
2023/03/27 02:48:00;;;;;;;16.30;3.03;;;1.60;99.90;;;;;;5032896;28;20498;-66
2023/03/27 02:50:31;;;;;;;24.60;3.23;;;1.50;99.90;;;;;;5033074;28;20448;-66
2023/03/27 02:53:01;;;;;;;15.27;4.30;;;1.50;99.90;;;;;;5032888;28;20455;-66
2023/03/27 02:55:32;;;;;;;11.93;3.60;;;1.50;99.90;;;;;;5027896;28;20474;-66
2023/03/27 02:58:04;;;;;;;13.13;3.20;;;1.50;99.90;;;;;;5032625;28;20566;-66
2023/03/27 03:00:36;;;;;;;13.67;3.40;;;1.50;99.90;;;;;;5023231;28;20542;-66
2023/03/27 03:03:08;;;;;;;27.73;3.40;;;1.50;99.90;;;;;;5026999;28;20458;-66
2023/03/27 03:05:36;;;;;;;5.90;3.07;;;1.50;99.90;;;;;;5024775;28;20529;-66
2023/03/27 03:08:03;;;;;;;13.70;2.80;;;1.40;99.90;;;;;;5025016;28;20921;-66
2023/03/27 03:10:32;;;;;;;21.17;3.60;;;1.40;99.90;;;;;;5032395;28;20455;-66
2023/03/27 03:13:00;;;;;;;13.67;2.90;;;1.40;99.90;;;;;;5032146;28;20462;-66
2023/03/27 03:15:26;;;;;;;8.33;2.90;;;1.40;99.90;;;;;;5032058;28;20982;-66
2023/03/27 03:17:53;;;;;;;8.93;3.00;;;1.40;99.90;;;;;;5024234;28;20461;-66
2023/03/27 03:20:20;;;;;;;14.20;3.20;;;1.40;99.90;;;;;;5032450;28;20515;-66
2023/03/27 03:22:48;;;;;;;10.73;3.27;;;1.50;99.90;;;;;;5032100;28;20502;-66
2023/03/27 03:25:14;;;;;;;11.63;2.90;;;1.30;99.90;;;;;;5027089;28;20530;-66
2023/03/27 03:27:42;;;;;;;13.43;3.07;;;1.30;99.90;;;;;;5023837;28;21006;-66
2023/03/27 03:30:11;;;;;;;8.03;2.37;;;1.20;99.90;;;;;;5019679;28;20511;-66
2023/03/27 03:32:38;;;;;;;12.63;2.97;;;1.20;99.90;;;;;;5019587;28;20914;-66
2023/03/27 03:35:07;;;;;;;4.73;2.53;;;1.20;99.90;;;;;;5028584;28;20479;-66
2023/03/27 03:37:37;;;;;;;5.33;2.70;;;1.20;99.90;;;;;;5022514;28;20447;-66
2023/03/27 03:40:10;;;;;;;10.13;2.57;;;1.20;99.90;;;;;;5032059;28;20494;-66
2023/03/27 03:42:37;;;;;;;7.60;2.80;;;1.20;99.90;;;;;;5031470;28;20492;-66
2023/03/27 03:45:05;;;;;;;10.73;2.30;;;1.20;99.90;;;;;;5024611;28;20537;-66
2023/03/27 03:47:33;;;;;;;16.30;3.23;;;1.20;99.90;;;;;;5027271;28;20486;-66
2023/03/27 03:49:59;;;;;;;9.70;3.53;;;1.20;99.90;;;;;;5025849;28;20517;-66
2023/03/27 03:52:26;;;;;;;10.07;2.63;;;1.20;99.90;;;;;;5012571;28;20997;-66
2023/03/27 03:54:53;;;;;;;8.47;3.03;;;1.20;99.90;;;;;;5024862;28;20478;-66
2023/03/27 03:57:20;;;;;;;6.17;2.77;;;1.20;99.90;;;;;;5027909;28;20877;-66
2023/03/27 03:59:47;;;;;;;11.70;2.83;;;1.20;99.90;;;;;;5019814;28;20458;-66
2023/03/27 04:02:27;;;;;;;7.97;3.03;;;1.20;99.90;;;;;;5026306;28;20455;-66
2023/03/27 04:04:55;;;;;;;10.33;2.70;;;1.20;99.90;;;;;;5031535;28;20488;-66
2023/03/27 04:07:22;;;;;;;5.87;2.60;;;1.20;99.90;;;;;;5031588;28;20539;-66
2023/03/27 04:09:49;;;;;;;8.87;2.60;;;1.20;99.90;;;;;;5031374;28;21005;-66
2023/03/27 04:12:15;;;;;;;8.20;2.60;;;1.30;99.90;;;;;;5022820;28;20448;-66
2023/03/27 04:14:42;;;;;;;12.00;2.43;;;1.20;99.90;;;;;;5030106;28;20467;-66
2023/03/27 04:17:09;;;;;;;8.30;2.30;;;1.20;99.90;;;;;;5022932;28;20473;-66
2023/03/27 04:19:35;;;;;;;14.93;2.40;;;1.20;99.90;;;;;;5020200;28;20448;-66
2023/03/27 04:22:05;;;;;;;7.63;2.20;;;1.20;99.90;;;;;;5025388;28;20460;-66
2023/03/27 04:24:32;;;;;;;8.80;2.23;;;1.20;99.90;;;;;;5031447;28;20471;-66
2023/03/27 04:27:00;;;;;;;9.07;2.40;;;1.30;99.90;;;;;;5030081;28;20462;-66
2023/03/27 04:29:29;;;;;;;6.07;2.30;;;1.30;99.90;;;;;;5030653;28;21012;-66
2023/03/27 04:31:56;;;;;;;11.07;2.73;;;1.30;99.90;;;;;;5030924;28;20463;-65
2023/03/27 04:34:23;;;;;;;8.73;2.90;;;1.30;99.90;;;;;;5031286;28;20479;-66
2023/03/27 04:36:50;;;;;;;6.17;2.87;;;1.30;99.90;;;;;;5030590;28;20526;-66
2023/03/27 04:39:18;;;;;;;5.77;2.50;;;1.30;99.90;;;;;;5031140;28;20454;-66
2023/03/27 04:41:48;;;;;;;8.13;3.43;;;1.30;99.90;;;;;;5023056;28;20511;-66
2023/03/27 04:44:16;;;;;;;9.27;3.67;;;1.20;99.90;;;;;;5017359;28;20460;-66
2023/03/27 04:46:43;;;;;;;15.33;2.80;;;1.20;99.90;;;;;;5018649;28;20463;-66
2023/03/27 04:49:09;;;;;;;17.40;3.23;;;1.20;99.90;;;;;;5027437;28;20542;-66
2023/03/27 04:51:37;;;;;;;7.17;2.80;;;1.20;99.90;;;;;;5026789;28;20578;-66
2023/03/27 04:54:04;;;;;;;10.93;2.60;;;1.20;99.90;;;;;;5028681;28;20473;-68
2023/03/27 04:56:33;;;;;;;6.93;2.63;;;1.20;99.90;;;;;;5017458;28;20495;-68
2023/03/27 04:59:01;;;;;;;12.80;2.83;;;1.20;99.90;;;;;;5017498;28;20542;-68
2023/03/27 05:01:28;;;;;;;4.70;2.57;;;1.20;99.90;;;;;;5028118;28;20464;-68
2023/03/27 05:03:55;;;;;;;6.93;2.57;;;1.20;99.90;;;;;;5027601;28;20508;-68
2023/03/27 05:06:22;;;;;;;14.10;2.50;;;1.20;99.90;;;;;;5030803;28;20955;-68
2023/03/27 05:08:50;;;;;;;10.53;2.33;;;1.10;99.90;;;;;;5014486;28;20486;-68
2023/03/27 05:11:16;;;;;;;15.10;2.90;;;1.20;99.90;;;;;;5023193;28;20452;-68
2023/03/27 05:13:44;;;;;;;8.13;3.03;;;1.10;99.90;;;;;;5029645;28;20462;-68
2023/03/27 05:16:11;;;;;;;8.80;2.63;;;1.10;99.90;;;;;;5026365;28;20526;-69
2023/03/27 05:18:40;;;;;;;5.20;2.37;;;1.10;99.90;;;;;;5015050;28;20513;-69
2023/03/27 05:21:07;;;;;;;19.23;3.63;;;1.00;99.90;;;;;;5014256;28;20465;-70
2023/03/27 05:23:34;;;;;;;20.83;3.20;;;1.10;99.90;;;;;;5030202;28;20509;-69
2023/03/27 05:26:00;;;;;;;8.63;2.47;;;1.10;99.90;;;;;;5029785;28;20471;-69
2023/03/27 05:28:27;;;;;;;6.27;2.80;;;1.10;99.90;;;;;;5026779;28;20895;-70
2023/03/27 05:30:55;;;;;;;14.40;3.13;;;1.10;99.90;;;;;;5030149;28;20517;-69
2023/03/27 05:33:23;;;;;;;7.53;2.40;;;1.10;99.90;;;;;;5032850;28;20455;-69
2023/03/27 05:35:51;;;;;;;8.10;2.60;;;1.20;99.90;;;;;;5033884;28;20476;-70
2023/03/27 05:38:18;;;;;;;15.10;4.27;;;1.10;99.90;;;;;;5014633;28;20448;-69
2023/03/27 05:40:45;;;;;;;9.90;2.50;;;1.10;99.90;;;;;;5017300;28;20468;-70
2023/03/27 05:43:11;;;;;;;5.17;2.20;;;1.20;99.90;;;;;;5019119;28;20501;-69
2023/03/27 05:45:38;;;;;;;10.23;2.90;;;1.20;99.90;;;;;;5021835;28;20484;-69
2023/03/27 05:48:07;;;;;;;4.90;2.40;;;1.50;99.90;;;;;;5033716;28;21013;-69
2023/03/27 05:50:34;;;;;;;12.03;2.90;;;1.70;99.90;;;;;;5028910;28;20469;-70
2023/03/27 05:53:03;;;;;;;7.97;2.50;;;2.10;99.90;;;;;;5033883;28;20452;-70
2023/03/27 05:55:31;;;;;;;11.70;3.13;;;2.30;99.90;;;;;;5034076;28;20527;-70
2023/03/27 05:57:57;;;;;;;13.70;3.00;;;2.70;99.90;;;;;;5032769;28;20458;-69
2023/03/27 06:00:26;;;;;;;7.80;2.60;;;3.00;99.90;;;;;;5017539;28;21022;-72
2023/03/27 06:02:55;;;;;;;8.10;2.63;;;3.30;99.90;;;;;;5019564;28;20526;-69
2023/03/27 06:05:23;;;;;;;11.07;3.00;;;3.50;99.90;;;;;;5021450;28;20477;-70
2023/03/27 06:07:51;;;;;;;4.67;2.60;;;3.80;99.90;;;;;;5033659;28;20464;-72
2023/03/27 06:10:19;;;;;;;13.13;3.17;;;4.00;99.90;;;;;;5033816;28;20462;-70
2023/03/27 06:12:46;;;;;;;13.70;2.80;;;4.20;99.90;;;;;;5032739;28;20458;-70
2023/03/27 06:15:14;;;;;;;9.80;2.67;;;4.50;99.90;;;;;;5033368;28;20466;-69
2023/03/27 06:17:42;;;;;;;10.40;2.80;;;4.80;99.90;;;;;;5032971;28;20496;-69
2023/03/27 06:20:11;;;;;;;9.33;2.40;;;5.00;99.90;;;;;;5028845;28;20446;-70
2023/03/27 06:22:43;;;;;;;15.10;2.60;;;5.20;99.90;;;;;;5033440;28;20446;-70
2023/03/27 06:25:10;;;;;;;9.33;2.77;;;5.40;99.90;;;;;;5033182;28;21126;-70
2023/03/27 06:27:38;;;;;;;13.00;2.90;;;5.60;99.90;;;;;;5027246;28;20517;-70
2023/03/27 06:30:06;;;;;;;5.50;2.40;;;5.80;99.90;;;;;;5028774;28;20492;-70
2023/03/27 06:32:33;;;;;;;8.47;2.50;;;6.10;99.90;;;;;;5029322;28;20530;-70
2023/03/27 06:34:59;;;;;;;15.30;3.60;;;6.30;99.90;;;;;;5031995;28;20483;-70
2023/03/27 06:37:26;;;;;;;9.03;2.47;;;6.50;99.90;;;;;;5032665;28;20513;-70
2023/03/27 06:39:54;;;;;;;7.97;2.40;;;6.70;99.90;;;;;;5032856;28;20453;-70
2023/03/27 06:42:20;;;;;;;13.10;2.50;;;6.90;99.90;;;;;;5029513;28;20458;-69
2023/03/27 06:44:47;;;;;;;6.70;2.70;;;7.30;99.90;;;;;;5033135;28;20502;-70
2023/03/27 06:47:14;;;;;;;6.37;2.50;;;7.50;99.90;;;;;;5032178;28;20461;-70
2023/03/27 06:49:42;;;;;;;7.87;2.60;;;7.80;99.90;;;;;;5026527;28;20573;-70
2023/03/27 06:52:09;;;;;;;12.83;3.37;;;8.00;99.90;;;;;;5032616;28;20468;-70
2023/03/27 06:54:36;;;;;;;7.77;2.67;;;8.20;99.90;;;;;;5032724;28;20876;-70
2023/03/27 06:57:05;;;;;;;16.00;3.00;;;8.30;99.90;;;;;;5023169;28;20516;-70
2023/03/27 06:59:32;;;;;;;9.57;2.93;;;8.60;99.90;;;;;;5022256;28;20458;-70
2023/03/27 07:01:58;;;;;;;20.13;2.90;;;8.90;99.90;;;;;;5025455;28;20514;-70
2023/03/27 07:04:25;;;;;;;8.63;2.43;;;9.10;99.90;;;;;;5012783;28;21056;-70
2023/03/27 07:06:52;;;;;;;9.53;3.20;;;9.20;99.90;;;;;;5019626;28;20468;-70
2023/03/27 07:09:18;;;;;;;12.50;2.97;;;9.50;99.90;;;;;;5012556;28;20491;-70
2023/03/27 07:11:45;;;;;;;12.20;3.60;;;9.80;99.90;;;;;;5012863;28;20452;-70
2023/03/27 07:14:13;;;;;;;11.87;3.37;;;9.70;99.90;;;;;;5018754;28;20509;-70
2023/03/27 07:16:40;;;;;;;13.13;3.03;;;9.70;99.90;;;;;;5012523;28;20940;-70
2023/03/27 07:19:06;;;;;;;10.43;3.20;;;9.20;99.90;;;;;;5025085;28;20458;-70
2023/03/27 07:21:33;;;;;;;9.63;3.30;;;9.00;99.90;;;;;;5032282;28;20454;-70
2023/03/27 07:24:00;;;;;;;7.30;3.10;;;8.90;99.90;;;;;;5021261;28;20951;-70
2023/03/27 07:26:28;;;;;;;17.37;3.60;;;9.00;99.90;;;;;;5027351;28;20486;-70
2023/03/27 07:28:55;;;;;;;14.80;3.47;;;9.00;99.90;;;;;;5020975;28;20491;-70
2023/03/27 07:31:23;;;;;;;15.70;3.37;;;9.00;99.90;;;;;;5016500;28;20495;-70
2023/03/27 07:33:50;;;;;;;22.10;3.20;;;8.80;99.90;;;;;;5020008;28;20459;-70
2023/03/27 07:36:17;;;;;;;7.03;2.50;;;8.80;99.90;;;;;;5023934;28;20484;-70
2023/03/27 07:38:45;;;;;;;10.37;3.17;;;8.60;99.90;;;;;;5024819;28;20935;-70
2023/03/27 07:41:12;;;;;;;12.87;3.33;;;8.60;99.90;;;;;;5024725;28;20454;-70
2023/03/27 07:43:39;;;;;;;8.60;3.03;;;8.80;99.90;;;;;;5018318;28;20901;-70
2023/03/27 07:46:06;;;;;;;12.53;3.30;;;8.60;99.90;;;;;;5019995;28;20474;-70
2023/03/27 07:48:34;;;;;;;14.37;3.73;;;8.60;99.90;;;;;;5019952;28;20909;-70
2023/03/27 07:51:01;;;;;;;18.87;3.20;;;8.70;99.90;;;;;;5019309;28;20487;-69
2023/03/27 07:53:28;;;;;;;15.23;2.97;;;8.70;99.90;;;;;;5030060;28;20554;-70
2023/03/27 07:55:57;;;;;;;7.53;3.10;;;8.80;99.90;;;;;;5029081;28;20480;-70
2023/03/27 07:58:24;;;;;;;10.83;2.97;;;8.90;99.90;;;;;;5026362;28;20958;-73
2023/03/27 08:00:54;;;;;;;8.43;2.60;;;8.80;99.90;;;;;;5027678;28;20456;-70
2023/03/27 08:03:24;;;;;;;13.17;2.73;;;8.90;99.90;;;;;;5027294;28;20455;-71
2023/03/27 08:05:56;;;;;;;9.77;3.67;;;9.00;99.90;;;;;;5029135;28;21260;-70
2023/03/27 08:08:24;;;;;;;13.97;2.63;;;8.80;99.90;;;;;;5015920;28;20475;-71
2023/03/27 08:10:51;;;;;;;11.70;2.87;;;8.90;99.90;;;;;;5023354;28;20487;-71
2023/03/27 08:13:18;;;;;;;11.83;2.80;;;9.10;99.90;;;;;;5019200;28;20993;-71
2023/03/27 08:15:44;;;;;;;10.93;2.40;;;9.30;99.90;;;;;;5025915;28;20496;-70
2023/03/27 08:18:11;;;;;;;15.67;2.90;;;9.40;99.90;;;;;;5021129;28;21016;-73
2023/03/27 08:20:38;;;;;;;9.63;2.77;;;9.40;99.90;;;;;;5031495;28;20556;-73
2023/03/27 08:23:06;;;;;;;8.43;3.27;;;9.70;99.90;;;;;;5019778;28;20951;-72
2023/03/27 08:25:33;;;;;;;13.80;3.03;;;9.70;99.90;;;;;;5023396;28;20482;-72
2023/03/27 08:28:00;;;;;;;12.60;3.13;;;9.40;99.90;;;;;;5021791;28;20470;-73
2023/03/27 08:30:27;;;;;;;8.10;2.90;;;9.50;99.90;;;;;;5013255;28;20490;-73
2023/03/27 08:32:54;;;;;;;19.40;3.27;;;9.60;99.90;;;;;;5021163;28;21035;-72
2023/03/27 08:35:21;;;;;;;11.27;2.80;;;9.50;99.90;;;;;;5021023;28;20485;-73
2023/03/27 08:37:48;;;;;;;6.30;2.47;;;9.20;99.90;;;;;;5024347;28;20466;-72
2023/03/27 08:40:22;;;;;;;5.93;2.20;;;9.00;99.90;;;;;;5025453;28;20500;-73
2023/03/27 08:42:53;;;;;;;6.70;2.53;;;8.90;99.90;;;;;;5023628;28;20457;-72
2023/03/27 08:45:23;;;;;;;6.83;2.80;;;8.60;99.90;;;;;;5024711;28;20488;-72
2023/03/27 08:47:53;;;;;;;11.43;2.60;;;8.40;99.90;;;;;;5028687;28;20872;-73
2023/03/27 08:50:29;;;;;;;6.40;2.33;;;8.40;99.90;;;;;;5016082;28;20543;-73
2023/03/27 08:52:58;;;;;;;9.53;2.67;;;8.30;99.90;;;;;;5021294;28;20467;-72
2023/03/27 08:55:36;;;;;;;3.90;2.10;;;8.40;99.90;;;;;;5013896;28;20485;-73
2023/03/27 08:58:03;;;;;;;7.00;2.07;;;8.20;99.90;;;;;;5011497;28;20553;-72
2023/03/27 09:00:36;;;;;;;6.93;1.90;;;7.90;99.90;;;;;;5030327;28;20887;-73
2023/03/27 09:03:13;;;;;;;7.13;2.10;;;7.50;99.90;;;;;;5028552;28;20530;-73
2023/03/27 09:05:44;;;;;;;8.73;2.60;;;7.50;99.90;;;;;;5017224;28;20527;-73
2023/03/27 09:08:22;;;;;;;7.10;2.23;;;7.30;99.90;;;;;;5035059;28;20456;-73
2023/03/27 09:10:53;;;;;;;6.97;2.30;;;7.40;99.90;;;;;;5029949;28;20497;-73
2023/03/27 09:13:25;;;;;;;9.10;2.10;;;7.30;99.90;;;;;;5034673;28;20456;-73
2023/03/27 09:15:57;;;;;;;7.23;2.47;;;7.60;99.90;;;;;;5034091;28;20471;-73
2023/03/27 09:18:30;;;;;;;12.93;2.87;;;7.80;99.90;;;;;;5028060;28;20547;-72
2023/03/27 09:21:03;;;;;;;10.07;2.47;;;8.20;99.90;;;;;;5014782;28;20956;-73
2023/03/27 09:23:38;;;;;;;5.00;2.37;;;8.50;99.90;;;;;;5015008;28;20490;-73
2023/03/27 09:26:10;;;;;;;4.10;2.10;;;8.70;99.90;;;;;;5030724;28;20981;-72
2023/03/27 09:28:49;;;;;;;5.47;1.97;;;8.60;99.90;;;;;;5034192;28;20467;-72
2023/03/27 09:31:21;;;;;;;10.00;2.63;;;8.50;99.90;;;;;;5033710;28;21000;-73
2023/03/27 09:33:48;;;;;;;7.90;2.27;;;8.10;99.90;;;;;;5034573;28;20454;-73
2023/03/27 09:36:14;;;;;;;6.40;1.93;;;8.10;99.90;;;;;;5034190;28;20475;-73
2023/03/27 09:38:45;;;;;;;6.70;2.23;;;8.30;99.90;;;;;;5022986;28;20885;-70
2023/03/27 09:41:16;;;;;;;4.70;1.80;;;8.70;99.90;;;;;;5033858;28;20460;-70
2023/03/27 09:43:49;;;;;;;10.50;2.10;;;8.80;99.90;;;;;;5024697;28;21006;-70
2023/03/27 09:46:18;;;;;;;12.10;2.47;;;8.70;99.90;;;;;;5019882;28;20509;-70
2023/03/27 09:48:52;;;;;;;8.63;1.93;;;8.20;99.90;;;;;;5033376;28;20468;-70
2023/03/27 09:51:38;;;;;;;7.40;1.70;;;7.90;99.90;;;;;;5020121;28;20523;-70
2023/03/27 09:54:06;;;;;;;7.63;2.40;;;7.70;99.90;;;;;;5031377;28;20465;-70
2023/03/27 09:56:38;;;;;;;6.47;2.73;;;7.80;99.90;;;;;;5034028;28;20528;-70
2023/03/27 09:59:10;;;;;;;8.77;2.40;;;8.00;99.90;;;;;;5028448;28;20457;-70
2023/03/27 10:01:37;;;;;;;2.47;1.90;;;8.50;99.90;;;;;;5019783;28;21028;-70
2023/03/27 10:04:12;;;;;;;10.77;2.00;;;9.00;99.90;;;;;;5025645;28;20886;-70
2023/03/27 10:06:44;;;;;;;8.67;1.80;;;9.00;99.90;;;;;;5033664;28;20951;-70
2023/03/27 10:09:21;;;;;;;5.90;2.00;;;8.70;99.90;;;;;;5032068;28;20476;-70
2023/03/27 10:11:51;;;;;;;5.73;1.80;;;8.70;99.90;;;;;;5013196;28;20461;-70
2023/03/27 10:14:22;;;;;;;4.93;2.63;;;8.90;99.90;;;;;;5012916;28;20479;-70
2023/03/27 10:16:49;;;;;;;12.53;2.20;;;9.20;99.90;;;;;;5022477;28;20468;-70
2023/03/27 10:19:27;;;;;;;9.37;2.50;;;9.70;99.90;;;;;;5020095;28;20468;-70
2023/03/27 10:21:55;;;;;;;5.70;2.00;;;9.90;99.90;;;;;;5013692;28;21009;-70
2023/03/27 10:24:31;;;;;;;6.80;2.20;;;9.70;99.90;;;;;;5014101;28;20535;-70
2023/03/27 10:27:00;;;;;;;11.90;2.37;;;10.00;99.90;;;;;;5021902;28;20983;-70
2023/03/27 10:29:30;;;;;;;5.10;1.90;;;10.50;99.90;;;;;;5032099;28;20462;-70
2023/03/27 10:31:58;;;;;;;3.20;1.70;;;10.60;99.90;;;;;;5033201;28;20453;-70
2023/03/27 10:34:31;;;;;;;3.50;2.10;;;10.00;99.90;;;;;;5032925;28;20482;-71
2023/03/27 10:37:00;;;;;;;8.80;2.00;;;9.50;99.90;;;;;;5033515;28;20457;-71
2023/03/27 10:39:29;;;;;;;6.43;1.90;;;9.40;99.90;;;;;;5033165;28;20491;-71
2023/03/27 10:41:56;;;;;;;4.47;1.77;;;9.50;99.90;;;;;;5032937;28;20454;-71
2023/03/27 10:44:27;;;;;;;4.80;1.93;;;9.90;99.90;;;;;;5032877;28;20480;-71
2023/03/27 10:46:54;;;;;;;4.63;2.00;;;10.10;99.90;;;;;;5032882;28;20952;-71
2023/03/27 10:49:32;;;;;;;6.83;1.80;;;10.40;99.90;;;;;;5028218;28;20466;-71
2023/03/27 10:52:07;;;;;;;2.90;1.70;;;10.60;99.90;;;;;;5032838;28;20462;-71
2023/03/27 10:54:39;;;;;;;2.83;1.80;;;10.50;99.90;;;;;;5019715;28;20483;-72
2023/03/27 10:57:12;;;;;;;4.37;1.57;;;10.30;99.90;;;;;;5019608;28;20454;-71
2023/03/27 10:59:46;;;;;;;3.20;1.80;;;10.00;99.90;;;;;;5020099;28;20706;-69
2023/03/27 11:02:16;;;;;;;3.63;2.00;;;9.90;99.90;;;;;;5028531;28;20512;-70
2023/03/27 11:04:50;;;;;;;4.30;1.90;;;9.90;99.90;;;;;;5012938;28;20823;-69
2023/03/27 11:07:22;;;;;;;12.00;1.87;;;9.80;99.90;;;;;;5023159;28;20467;-70
2023/03/27 11:09:56;;;;;;;3.80;2.10;;;10.00;99.90;;;;;;5032628;28;20485;-70
2023/03/27 11:12:26;;;;;;;2.67;2.00;;;10.40;99.90;;;;;;5032354;28;20516;-70
2023/03/27 11:14:59;;;;;;;3.70;2.70;;;10.60;99.90;;;;;;5032266;28;20477;-70
2023/03/27 11:17:32;;;;;;;3.10;2.30;;;10.90;99.90;;;;;;5032342;28;21037;-70
2023/03/27 11:20:05;;;;;;;7.13;1.80;;;11.30;99.90;;;;;;5013494;28;20451;-70
2023/03/27 11:22:37;;;;;;;4.00;2.03;;;11.40;99.90;;;;;;5012432;28;20558;-71
2023/03/27 11:25:09;;;;;;;4.53;1.80;;;11.60;99.90;;;;;;5011999;28;20894;-70
2023/03/27 11:27:40;;;;;;;3.40;1.90;;;11.20;99.90;;;;;;5021846;28;20455;-70
2023/03/27 11:30:36;;;;;;;2.03;1.83;;;10.90;99.90;;;;;;5027758;28;21002;-70
2023/03/27 11:33:24;;;;;;;3.37;1.67;;;10.70;99.90;;;;;;5027526;28;20469;-70
2023/03/27 11:35:57;;;;;;;5.23;1.93;;;11.00;99.90;;;;;;5027796;28;20491;-70
2023/03/27 11:38:28;;;;;;;3.67;2.00;;;11.00;99.90;;;;;;5026040;28;20459;-70
2023/03/27 11:40:55;;;;;;;4.00;2.00;;;10.80;99.90;;;;;;5028144;28;20462;-70
2023/03/27 11:43:22;;;;;;;4.93;2.17;;;10.50;99.90;;;;;;5027770;28;20479;-70
2023/03/27 11:46:00;;;;;;;3.43;1.73;;;10.50;99.90;;;;;;5028157;28;20474;-70
2023/03/27 11:48:42;;;;;;;3.93;1.80;;;10.90;99.90;;;;;;5027139;28;20989;-71
2023/03/27 11:51:19;;;;;;;4.83;1.90;;;11.10;99.90;;;;;;5027508;28;20544;-70
2023/03/27 11:54:08;;;;;;;2.70;1.80;;;11.20;99.90;;;;;;5027672;28;20458;-70
2023/03/27 11:56:45;;;;;;;8.10;2.27;;;11.20;99.90;;;;;;5026752;28;20455;-70
2023/03/27 11:59:53;;;;;;;3.00;1.70;;;10.80;99.90;;;;;;5025648;28;20475;-71
2023/03/27 12:02:49;;;;;;;3.30;1.87;;;10.40;99.90;;;;;;5009098;28;20510;-71
2023/03/27 12:05:23;;;;;;;4.10;2.13;;;11.00;99.90;;;;;;5027344;28;20464;-70
2023/03/27 12:07:58;;;;;;;6.17;2.93;;;11.70;99.90;;;;;;5026313;28;20469;-70
2023/03/27 12:10:29;;;;;;;3.27;1.80;;;12.00;99.90;;;;;;5026558;28;20546;-70
2023/03/27 12:13:19;;;;;;;7.17;2.13;;;12.20;99.90;;;;;;5026510;28;20458;-70
2023/03/27 12:16:25;;;;;;;5.97;2.23;;;11.40;99.90;;;;;;5027844;28;20531;-71
2023/03/27 12:19:06;;;;;;;3.63;1.90;;;10.90;99.90;;;;;;5014604;28;20466;-71
2023/03/27 12:21:48;;;;;;;4.03;1.60;;;10.70;99.90;;;;;;5026676;28;20448;-71
2023/03/27 12:24:27;;;;;;;2.80;1.83;;;10.90;99.90;;;;;;5026747;28;20439;-71
2023/03/27 12:27:22;;;;;;;3.97;2.03;;;11.10;99.90;;;;;;5025315;28;20462;-70
2023/03/27 12:29:58;;;;;;;2.00;1.80;;;11.30;99.90;;;;;;5025994;28;20465;-72
2023/03/27 12:32:47;;;;;;;3.20;1.80;;;11.70;99.90;;;;;;5026216;28;20973;-72
2023/03/27 12:35:18;;;;;;;2.90;1.93;;;12.10;99.90;;;;;;5025010;28;21002;-72
2023/03/27 12:37:50;;;;;;;4.83;1.60;;;11.90;99.90;;;;;;5026618;28;21194;-71
2023/03/27 12:40:29;;;;;;;1.80;1.67;;;12.10;99.90;;;;;;5026974;28;20441;-71
2023/03/27 12:43:05;;;;;;;2.90;1.70;;;12.10;99.90;;;;;;5026217;28;20951;-71
2023/03/27 12:45:32;;;;;;;3.77;3.03;;;12.10;99.90;;;;;;5025787;28;20520;-71
2023/03/27 12:48:20;;;;;;;3.13;2.13;;;11.70;99.90;;;;;;5025682;28;20453;-71
2023/03/27 12:50:55;;;;;;;3.83;1.97;;;11.40;99.90;;;;;;5022265;28;20490;-71
2023/03/27 12:53:48;;;;;;;4.53;2.97;;;11.60;99.90;;;;;;5027032;28;20469;-72
2023/03/27 12:56:30;;;;;;;5.13;2.10;;;11.70;99.90;;;;;;5026428;28;20547;-71
2023/03/27 12:58:58;;;;;;;9.50;1.77;;;12.00;99.90;;;;;;5027050;28;20486;-71
2023/03/27 13:01:44;;;;;;;5.00;2.07;;;12.20;99.90;;;;;;5026341;28;20446;-72
2023/03/27 13:04:30;;;;;;;5.03;2.20;;;12.60;99.90;;;;;;5025447;28;20461;-72
2023/03/27 13:07:07;;;;;;;3.03;1.70;;;12.70;99.90;;;;;;5026747;28;20457;-72
2023/03/27 13:10:02;;;;;;;4.83;1.47;;;12.80;99.90;;;;;;5026367;28;20473;-73
2023/03/27 13:12:55;;;;;;;2.00;1.57;;;12.70;99.90;;;;;;5026471;28;20454;-72